Time;durP1;ratioP1;P1;durP2;ratioP2;P2;SDS_P1;SDS_P2;PMS_P1;PMS_P2;Temp;Humidity;BMP_temperature;BMP_pressure;BME280_temperature;BME280_humidity;BME280_pressure;Samples;Min_cycle;Max_cycle;Signal;HPM_P1;HPM_P2
2023/11/04 00:01:00;;;;;;;6.30;3.67;;;;;;;;;;5072083;28;20689;-75
2023/11/04 00:03:28;;;;;;;5.43;3.53;;;;;;;;;;5072189;28;20676;-75
2023/11/04 00:05:55;;;;;;;9.50;3.43;;;;;;;;;;5071924;28;20202;-75
2023/11/04 00:08:22;;;;;;;8.30;4.67;;;;;;;;;;5070799;28;20309;-75
2023/11/04 00:10:49;;;;;;;11.77;4.57;;;;;;;;;;5072101;28;20205;-75
2023/11/04 00:13:16;;;;;;;13.70;3.80;;;;;;;;;;5072268;28;20213;-75
2023/11/04 00:15:44;;;;;;;8.20;3.33;;;;;;;;;;5071596;28;20197;-75
2023/11/04 00:18:11;;;;;;;9.03;3.87;;;;;;;;;;5071871;28;20637;-75
2023/11/04 00:20:39;;;;;;;8.10;4.13;;;;;;;;;;5071577;28;20200;-75
2023/11/04 00:23:06;;;;;;;19.70;4.50;;;;;;;;;;5071104;28;20203;-75
2023/11/04 00:25:33;;;;;;;10.17;4.37;;;;;;;;;;5071138;28;20203;-75
2023/11/04 00:28:01;;;;;;;6.43;3.50;;;;;;;;;;5071643;28;20224;-75
2023/11/04 00:30:27;;;;;;;7.57;4.30;;;;;;;;;;5071655;28;20197;-75
2023/11/04 00:32:54;;;;;;;12.47;4.57;;;;;;;;;;5071362;28;20698;-75
2023/11/04 00:35:21;;;;;;;10.23;4.30;;;;;;;;;;5071323;28;20694;-75
2023/11/04 00:37:50;;;;;;;9.50;3.53;;;;;;;;;;5071081;28;20219;-74
2023/11/04 00:40:16;;;;;;;10.03;4.33;;;;;;;;;;5071164;28;20643;-75
2023/11/04 00:42:43;;;;;;;10.53;4.73;;;;;;;;;;5071125;28;20291;-75
2023/11/04 00:45:11;;;;;;;8.60;4.50;;;;;;;;;;5071260;28;20204;-75
2023/11/04 00:47:38;;;;;;;9.50;4.53;;;;;;;;;;5070779;28;20225;-75
2023/11/04 00:50:05;;;;;;;7.47;3.80;;;;;;;;;;5071258;28;20281;-76
2023/11/04 00:52:32;;;;;;;5.47;3.80;;;;;;;;;;5071046;28;20211;-75
2023/11/04 00:55:01;;;;;;;8.83;3.83;;;;;;;;;;5070792;28;20581;-75
2023/11/04 00:57:28;;;;;;;13.80;4.50;;;;;;;;;;5070830;28;20202;-74
2023/11/04 00:59:58;;;;;;;8.67;4.20;;;;;;;;;;5071467;28;20200;-74
2023/11/04 01:02:25;;;;;;;9.07;4.20;;;;;;;;;;5070624;28;20203;-74
2023/11/04 01:04:52;;;;;;;11.40;5.30;;;;;;;;;;5071278;28;20214;-75
2023/11/04 01:07:19;;;;;;;6.60;4.80;;;;;;;;;;5070844;28;20224;-75
2023/11/04 01:09:46;;;;;;;6.70;4.03;;;;;;;;;;5070933;28;20212;-75
2023/11/04 01:12:14;;;;;;;9.43;4.73;;;;;;;;;;5070967;28;20631;-75
2023/11/04 01:14:41;;;;;;;5.93;4.13;;;;;;;;;;5070991;28;20210;-75
2023/11/04 01:17:07;;;;;;;7.33;5.27;;;;;;;;;;5070596;28;20206;-75
2023/11/04 01:19:35;;;;;;;8.07;5.20;;;;;;;;;;5071147;28;20203;-74
2023/11/04 01:22:02;;;;;;;11.23;5.70;;;;;;;;;;5070646;28;20622;-74
2023/11/04 01:24:29;;;;;;;9.23;5.30;;;;;;;;;;5071030;28;20262;-75
2023/11/04 01:26:56;;;;;;;9.40;4.77;;;;;;;;;;5070334;28;20321;-75
2023/11/04 01:29:24;;;;;;;8.00;5.30;;;;;;;;;;5070649;28;20232;-75
2023/11/04 01:31:51;;;;;;;10.07;6.00;;;;;;;;;;5069882;28;20675;-75
2023/11/04 01:34:17;;;;;;;8.37;5.83;;;;;;;;;;5070844;28;20212;-75
2023/11/04 01:36:44;;;;;;;7.50;4.60;;;;;;;;;;5070114;28;20194;-75
2023/11/04 01:39:12;;;;;;;8.40;5.30;;;;;;;;;;5070873;28;20196;-76
2023/11/04 01:41:39;;;;;;;6.93;4.93;;;;;;;;;;5069841;28;20212;-75
2023/11/04 01:44:06;;;;;;;9.07;5.07;;;;;;;;;;5060408;28;20199;-75
2023/11/04 01:46:34;;;;;;;9.33;4.90;;;;;;;;;;5067523;28;20201;-75
2023/11/04 01:49:01;;;;;;;7.40;5.07;;;;;;;;;;5070467;28;20217;-75
2023/11/04 01:51:29;;;;;;;6.73;4.80;;;;;;;;;;5070280;28;20233;-75
2023/11/04 01:53:56;;;;;;;11.53;6.77;;;;;;;;;;5070833;28;20631;-75
2023/11/04 01:56:26;;;;;;;8.33;5.47;;;;;;;;;;5070077;28;20205;-74
2023/11/04 01:58:55;;;;;;;6.47;5.40;;;;;;;;;;5070810;28;20205;-74
2023/11/04 02:01:22;;;;;;;6.30;4.73;;;;;;;;;;5069918;28;20246;-75
2023/11/04 02:03:51;;;;;;;9.10;5.50;;;;;;;;;;5070232;28;20828;-75
2023/11/04 02:06:18;;;;;;;8.10;5.30;;;;;;;;;;5057469;28;20687;-75
2023/11/04 02:08:45;;;;;;;5.27;4.67;;;;;;;;;;5070226;28;20229;-75
2023/11/04 02:11:11;;;;;;;6.80;4.10;;;;;;;;;;5070016;28;20598;-75
2023/11/04 02:13:38;;;;;;;7.90;4.97;;;;;;;;;;5070177;28;20203;-75
2023/11/04 02:16:07;;;;;;;10.17;4.70;;;;;;;;;;5070458;28;20676;-74
2023/11/04 02:18:34;;;;;;;8.40;4.27;;;;;;;;;;5069997;28;20259;-75
2023/11/04 02:21:02;;;;;;;5.20;3.93;;;;;;;;;;5070342;28;20201;-75
2023/11/04 02:23:29;;;;;;;5.90;4.10;;;;;;;;;;5070149;28;20313;-75
2023/11/04 02:25:55;;;;;;;6.90;3.93;;;;;;;;;;5070038;28;20198;-74
2023/11/04 02:28:22;;;;;;;4.83;4.07;;;;;;;;;;5070214;28;20610;-74
2023/11/04 02:30:49;;;;;;;6.13;3.93;;;;;;;;;;5070242;28;20668;-75
2023/11/04 02:33:16;;;;;;;10.47;3.93;;;;;;;;;;5073360;28;20201;-74
2023/11/04 02:35:43;;;;;;;8.40;4.70;;;;;;;;;;5073662;28;20596;-75
2023/11/04 02:38:11;;;;;;;6.17;3.93;;;;;;;;;;5073774;28;20201;-76
2023/11/04 02:40:38;;;;;;;7.67;4.10;;;;;;;;;;5074135;28;20685;-75
2023/11/04 02:43:05;;;;;;;7.33;3.90;;;;;;;;;;5073531;28;20212;-76
2023/11/04 02:45:32;;;;;;;8.40;3.77;;;;;;;;;;5073797;28;20211;-76
2023/11/04 02:47:59;;;;;;;6.97;4.03;;;;;;;;;;5073462;28;20225;-75
2023/11/04 02:50:25;;;;;;;6.93;4.20;;;;;;;;;;5073730;28;20237;-75
2023/11/04 02:52:52;;;;;;;6.47;3.97;;;;;;;;;;5073265;28;20207;-75
2023/11/04 02:55:20;;;;;;;7.17;3.97;;;;;;;;;;5069925;28;20389;-76
2023/11/04 02:57:47;;;;;;;6.03;3.63;;;;;;;;;;5072877;28;20203;-75
2023/11/04 03:00:14;;;;;;;8.77;4.23;;;;;;;;;;5073458;28;20205;-76
2023/11/04 03:02:42;;;;;;;5.07;3.33;;;;;;;;;;5072964;28;20230;-77
2023/11/04 03:05:08;;;;;;;3.93;2.90;;;;;;;;;;5073744;28;20237;-75
2023/11/04 03:07:36;;;;;;;6.00;3.30;;;;;;;;;;5072938;28;20198;-75
2023/11/04 03:10:04;;;;;;;5.07;3.30;;;;;;;;;;5073256;28;20295;-76
2023/11/04 03:12:32;;;;;;;6.47;3.73;;;;;;;;;;5072792;28;20228;-76
2023/11/04 03:14:59;;;;;;;5.13;2.23;;;;;;;;;;5073163;28;20285;-76
2023/11/04 03:17:27;;;;;;;3.03;2.00;;;;;;;;;;5072932;28;20203;-76
2023/11/04 03:19:53;;;;;;;2.80;2.20;;;;;;;;;;5073162;28;20210;-75
2023/11/04 03:22:20;;;;;;;5.33;2.30;;;;;;;;;;5072883;28;20216;-76
2023/11/04 03:24:47;;;;;;;6.17;2.27;;;;;;;;;;5072590;28;20394;-77
2023/11/04 03:27:14;;;;;;;4.17;2.37;;;;;;;;;;5072734;28;20205;-76
2023/11/04 03:29:42;;;;;;;1.93;1.83;;;;;;;;;;5072609;28;20230;-76
2023/11/04 03:32:09;;;;;;;9.37;2.80;;;;;;;;;;5067093;28;20209;-76
2023/11/04 03:34:36;;;;;;;5.07;2.30;;;;;;;;;;5065177;28;20292;-76
2023/11/04 03:37:03;;;;;;;4.83;2.20;;;;;;;;;;5072470;28;20205;-76
2023/11/04 03:39:30;;;;;;;4.33;2.47;;;;;;;;;;5072685;28;20210;-75
2023/11/04 03:41:57;;;;;;;5.90;2.37;;;;;;;;;;5072437;28;20265;-76
2023/11/04 03:44:23;;;;;;;3.47;2.40;;;;;;;;;;5071605;28;20205;-76
2023/11/04 03:46:54;;;;;;;2.43;1.73;;;;;;;;;;5072064;28;20205;-76
2023/11/04 03:49:21;;;;;;;7.57;4.77;;;;;;;;;;5072480;28;20234;-76
2023/11/04 03:51:48;;;;;;;4.00;3.57;;;;;;;;;;5072180;28;20242;-76
2023/11/04 03:54:14;;;;;;;3.43;2.77;;;;;;;;;;5071960;28;20209;-76
2023/11/04 03:56:41;;;;;;;3.90;2.17;;;;;;;;;;5072546;28;20206;-76
2023/11/04 03:59:10;;;;;;;3.23;1.80;;;;;;;;;;5072647;28;20213;-76
2023/11/04 04:01:41;;;;;;;2.03;1.93;;;;;;;;;;5072130;28;20207;-75
2023/11/04 04:04:09;;;;;;;2.00;1.60;;;;;;;;;;5071720;28;20492;-76
2023/11/04 04:06:36;;;;;;;7.93;7.23;;;;;;;;;;5071766;28;20994;-76
2023/11/04 04:09:03;;;;;;;8.00;5.53;;;;;;;;;;5072327;28;20229;-75
2023/11/04 04:11:30;;;;;;;6.50;5.13;;;;;;;;;;5071182;28;20243;-76
2023/11/04 04:13:56;;;;;;;5.53;4.03;;;;;;;;;;5069510;28;20592;-75
2023/11/04 04:16:23;;;;;;;5.90;4.27;;;;;;;;;;5069267;28;20198;-76
2023/11/04 04:18:50;;;;;;;6.13;3.67;;;;;;;;;;5066264;28;20203;-76
2023/11/04 04:21:18;;;;;;;3.20;2.00;;;;;;;;;;5068788;28;20205;-76
2023/11/04 04:23:46;;;;;;;2.40;1.67;;;;;;;;;;5065029;28;20239;-77
2023/11/04 04:26:18;;;;;;;2.00;1.50;;;;;;;;;;5068151;28;20205;-76
2023/11/04 04:28:45;;;;;;;1.40;1.30;;;;;;;;;;5064827;28;20248;-75
2023/11/04 04:31:12;;;;;;;2.97;1.30;;;;;;;;;;5071937;28;20618;-75
2023/11/04 04:33:39;;;;;;;5.60;2.83;;;;;;;;;;5071201;28;20205;-75
2023/11/04 04:36:06;;;;;;;3.93;1.80;;;;;;;;;;5071823;28;20205;-75
2023/11/04 04:38:35;;;;;;;2.00;1.80;;;;;;;;;;5071306;28;20202;-75
2023/11/04 04:41:02;;;;;;;3.73;2.10;;;;;;;;;;5067711;28;20205;-75
2023/11/04 04:43:29;;;;;;;4.07;3.27;;;;;;;;;;5067376;28;20228;-75
2023/11/04 04:45:56;;;;;;;6.43;5.63;;;;;;;;;;5070959;28;20199;-75
2023/11/04 04:48:22;;;;;;;8.03;4.60;;;;;;;;;;5070021;28;20703;-75
2023/11/04 04:50:49;;;;;;;4.03;2.43;;;;;;;;;;5071231;28;20651;-75
2023/11/04 04:53:16;;;;;;;3.07;2.40;;;;;;;;;;5071200;28;20231;-76
2023/11/04 04:55:44;;;;;;;14.83;11.03;;;;;;;;;;5070784;28;20212;-75
2023/11/04 04:58:11;;;;;;;7.97;7.17;;;;;;;;;;5070979;28;20259;-75
2023/11/04 05:00:38;;;;;;;3.47;2.20;;;;;;;;;;5071351;28;20213;-75
2023/11/04 05:03:05;;;;;;;1.40;1.10;;;;;;;;;;5070402;28;20203;-75
2023/11/04 05:05:32;;;;;;;2.67;1.30;;;;;;;;;;5066386;28;20206;-77
2023/11/04 05:07:58;;;;;;;1.37;1.20;;;;;;;;;;5070211;28;20210;-78
2023/11/04 05:10:25;;;;;;;0.70;0.70;;;;;;;;;;5068594;28;20236;-78
2023/11/04 05:12:53;;;;;;;1.60;1.07;;;;;;;;;;5061483;28;20285;-77
2023/11/04 05:15:20;;;;;;;2.10;1.17;;;;;;;;;;5068784;28;20199;-77
2023/11/04 05:17:48;;;;;;;2.53;1.63;;;;;;;;;;5070652;28;20197;-79
2023/11/04 05:20:15;;;;;;;1.40;1.30;;;;;;;;;;5070370;28;20209;-78
2023/11/04 05:22:42;;;;;;;1.97;1.77;;;;;;;;;;5070007;28;20214;-78
2023/11/04 05:25:09;;;;;;;5.37;1.80;;;;;;;;;;5068943;28;20210;-78
2023/11/04 05:27:36;;;;;;;2.37;1.60;;;;;;;;;;5070323;28;20762;-78
2023/11/04 05:30:06;;;;;;;3.43;1.47;;;;;;;;;;5070430;28;20258;-78
2023/11/04 05:32:33;;;;;;;2.57;1.80;;;;;;;;;;5070407;28;20202;-78
2023/11/04 05:35:00;;;;;;;2.40;1.33;;;;;;;;;;5070128;28;20697;-78
2023/11/04 05:37:27;;;;;;;1.20;1.10;;;;;;;;;;5070390;28;20567;-77
2023/11/04 05:39:53;;;;;;;4.87;4.20;;;;;;;;;;5070369;28;20193;-77
2023/11/04 05:42:23;;;;;;;2.03;1.50;;;;;;;;;;5069858;28;20208;-77
2023/11/04 05:44:53;;;;;;;3.13;1.50;;;;;;;;;;5069273;28;20201;-77
2023/11/04 05:47:21;;;;;;;0.97;0.60;;;;;;;;;;5070015;28;20651;-77
2023/11/04 05:49:48;;;;;;;2.23;0.97;;;;;;;;;;5068699;28;20303;-78
2023/11/04 05:52:15;;;;;;;0.83;0.70;;;;;;;;;;5069489;28;20201;-77
2023/11/04 05:54:42;;;;;;;2.50;0.93;;;;;;;;;;5068868;28;20201;-77
2023/11/04 05:57:09;;;;;;;1.50;0.83;;;;;;;;;;5069976;28;20636;-82
2023/11/04 05:59:37;;;;;;;1.83;1.07;;;;;;;;;;5068464;28;20706;-77
2023/11/04 06:02:04;;;;;;;2.23;0.87;;;;;;;;;;5067486;28;20673;-76
2023/11/04 06:04:32;;;;;;;2.67;1.20;;;;;;;;;;5069348;28;20262;-77
2023/11/04 06:06:59;;;;;;;1.90;1.80;;;;;;;;;;5054924;28;20204;-76
2023/11/04 06:09:27;;;;;;;5.83;1.83;;;;;;;;;;5073723;28;20232;-77
2023/11/04 06:11:54;;;;;;;2.47;1.30;;;;;;;;;;5073898;28;20693;-78
2023/11/04 06:14:21;;;;;;;0.77;0.77;;;;;;;;;;5074402;28;20203;-78
2023/11/04 06:16:48;;;;;;;0.73;0.73;;;;;;;;;;5073766;28;20686;-78
2023/11/04 06:19:15;;;;;;;0.60;0.60;;;;;;;;;;5074420;28;20342;-77
2023/11/04 06:21:43;;;;;;;1.17;1.00;;;;;;;;;;5073841;28;20220;-78
2023/11/04 06:24:10;;;;;;;1.50;1.40;;;;;;;;;;5074057;28;20207;-78
2023/11/04 06:26:37;;;;;;;2.87;1.20;;;;;;;;;;5072822;28;20205;-78
2023/11/04 06:29:04;;;;;;;5.60;2.47;;;;;;;;;;5073129;28;20708;-77
2023/11/04 06:31:31;;;;;;;8.57;7.77;;;;;;;;;;5073859;28;20208;-77
2023/11/04 06:33:57;;;;;;;4.47;3.03;;;;;;;;;;5073825;28;20199;-78
2023/11/04 06:36:24;;;;;;;9.53;8.53;;;;;;;;;;5073317;28;20215;-77
2023/11/04 06:38:52;;;;;;;4.87;4.40;;;;;;;;;;5073474;28;20202;-78
2023/11/04 06:41:19;;;;;;;3.80;3.37;;;;;;;;;;5072434;28;20208;-78
2023/11/04 06:43:47;;;;;;;1.90;1.40;;;;;;;;;;5073674;28;20283;-77
2023/11/04 06:46:13;;;;;;;3.50;1.30;;;;;;;;;;5073394;28;20286;-78
2023/11/04 06:48:40;;;;;;;1.73;1.60;;;;;;;;;;5073464;28;20217;-78
2023/11/04 06:51:07;;;;;;;2.10;1.90;;;;;;;;;;5073265;28;20229;-77
2023/11/04 06:53:35;;;;;;;2.77;2.23;;;;;;;;;;5073213;28;20209;-77
2023/11/04 06:56:03;;;;;;;12.23;4.27;;;;;;;;;;5073315;28;20206;-77
2023/11/04 06:58:30;;;;;;;21.57;12.03;;;;;;;;;;5073135;28;20210;-77
2023/11/04 07:00:58;;;;;;;26.73;15.60;;;;;;;;;;5073136;28;20761;-78
2023/11/04 07:03:25;;;;;;;9.93;5.20;;;;;;;;;;5073604;28;20204;-77
2023/11/04 07:05:52;;;;;;;16.33;6.93;;;;;;;;;;5071508;28;20640;-78
2023/11/04 07:08:19;;;;;;;23.67;10.03;;;;;;;;;;5073565;28;20220;-77
2023/11/04 07:10:45;;;;;;;13.53;8.00;;;;;;;;;;5073247;28;20760;-77
2023/11/04 07:13:14;;;;;;;32.77;16.10;;;;;;;;;;5072872;28;20227;-77
2023/11/04 07:15:43;;;;;;;32.77;17.23;;;;;;;;;;5072710;28;20291;-77
2023/11/04 07:18:10;;;;;;;14.27;7.80;;;;;;;;;;5072936;28;20214;-77
2023/11/04 07:20:37;;;;;;;18.83;8.53;;;;;;;;;;5054211;28;20595;-77
2023/11/04 07:23:04;;;;;;;15.77;10.03;;;;;;;;;;5065369;28;20668;-77
2023/11/04 07:25:31;;;;;;;32.73;20.47;;;;;;;;;;5072825;28;20207;-77
2023/11/04 07:27:58;;;;;;;17.10;9.70;;;;;;;;;;5072903;28;20635;-78
2023/11/04 07:30:27;;;;;;;18.23;10.70;;;;;;;;;;5072929;28;20257;-78
2023/11/04 07:32:54;;;;;;;18.93;10.43;;;;;;;;;;5072696;28;20236;-77
2023/11/04 07:35:21;;;;;;;40.33;19.73;;;;;;;;;;5065947;28;20220;-77
2023/11/04 07:37:48;;;;;;;21.47;11.23;;;;;;;;;;5072682;28;20215;-77
2023/11/04 07:40:16;;;;;;;23.40;11.23;;;;;;;;;;5072633;28;20209;-77
2023/11/04 07:42:43;;;;;;;15.27;10.50;;;;;;;;;;5072674;28;20368;-77
2023/11/04 07:45:11;;;;;;;13.40;9.97;;;;;;;;;;5072820;28;20200;-77
2023/11/04 07:47:40;;;;;;;9.97;6.80;;;;;;;;;;5072024;28;20201;-78
2023/11/04 07:50:08;;;;;;;18.20;8.13;;;;;;;;;;5072330;28;20236;-77
2023/11/04 07:52:35;;;;;;;12.37;8.10;;;;;;;;;;5072139;28;20200;-77
2023/11/04 07:55:02;;;;;;;27.50;14.30;;;;;;;;;;5066845;28;20199;-77
2023/11/04 07:57:29;;;;;;;13.60;9.37;;;;;;;;;;5071864;28;20231;-78
2023/11/04 07:59:55;;;;;;;9.37;5.20;;;;;;;;;;5072370;28;20226;-77
2023/11/04 08:02:23;;;;;;;11.67;5.43;;;;;;;;;;5072172;28;20706;-77
2023/11/04 08:04:51;;;;;;;16.57;4.50;;;;;;;;;;5072186;28;20212;-77
2023/11/04 08:07:19;;;;;;;11.93;5.43;;;;;;;;;;5071733;28;20207;-77
2023/11/04 08:09:46;;;;;;;11.40;5.53;;;;;;;;;;5072113;28;20319;-77
2023/11/04 08:12:14;;;;;;;10.50;5.23;;;;;;;;;;5071549;28;20212;-78
2023/11/04 08:14:41;;;;;;;12.43;5.23;;;;;;;;;;5071569;28;20237;-77
2023/11/04 08:17:08;;;;;;;13.50;8.23;;;;;;;;;;5071669;28;20201;-78
2023/11/04 08:19:35;;;;;;;18.67;9.17;;;;;;;;;;5071550;28;20641;-78
2023/11/04 08:22:04;;;;;;;13.00;6.87;;;;;;;;;;5071456;28;20209;-78
2023/11/04 08:24:31;;;;;;;14.03;6.63;;;;;;;;;;5072030;28;20208;-77
2023/11/04 08:26:58;;;;;;;13.97;6.37;;;;;;;;;;5071782;28;20262;-78
2023/11/04 08:29:25;;;;;;;18.30;7.77;;;;;;;;;;5071240;28;20208;-78
2023/11/04 08:31:52;;;;;;;17.67;6.83;;;;;;;;;;5071876;28;20297;-78
2023/11/04 08:34:19;;;;;;;8.50;6.80;;;;;;;;;;5071248;28;20205;-78
2023/11/04 08:36:46;;;;;;;14.37;6.47;;;;;;;;;;5071234;28;20208;-78
2023/11/04 08:39:15;;;;;;;18.87;6.57;;;;;;;;;;5061188;28;20288;-78
2023/11/04 08:41:42;;;;;;;12.67;7.80;;;;;;;;;;5068365;28;20197;-78
2023/11/04 08:44:11;;;;;;;17.37;6.47;;;;;;;;;;5071208;28;20216;-78
2023/11/04 08:46:37;;;;;;;10.70;5.93;;;;;;;;;;5071149;28;20284;-78
2023/11/04 08:49:06;;;;;;;18.90;8.20;;;;;;;;;;5071371;28;20236;-78
2023/11/04 08:51:33;;;;;;;13.93;6.17;;;;;;;;;;5070879;28;20229;-78
2023/11/04 08:54:00;;;;;;;12.90;6.27;;;;;;;;;;5071577;28;20209;-78
2023/11/04 08:56:28;;;;;;;21.37;7.00;;;;;;;;;;5070862;28;20745;-78
2023/11/04 08:58:55;;;;;;;19.77;7.50;;;;;;;;;;5070772;28;20259;-78
2023/11/04 09:01:24;;;;;;;17.57;6.37;;;;;;;;;;5070327;28;20201;-78
2023/11/04 09:03:55;;;;;;;22.63;7.13;;;;;;;;;;5071392;28;20584;-78
2023/11/04 09:06:22;;;;;;;13.03;6.33;;;;;;;;;;5071517;28;20216;-78
2023/11/04 09:08:49;;;;;;;6.57;3.17;;;;;;;;;;5070732;28;20208;-78
2023/11/04 09:11:16;;;;;;;5.27;2.37;;;;;;;;;;5070923;28;20232;-78
2023/11/04 09:13:45;;;;;;;6.63;2.47;;;;;;;;;;5070512;28;20295;-79
2023/11/04 09:16:14;;;;;;;8.13;2.47;;;;;;;;;;5063247;28;20205;-78
2023/11/04 09:18:40;;;;;;;5.47;2.23;;;;;;;;;;5070574;28;20392;-79
2023/11/04 09:21:07;;;;;;;6.70;3.20;;;;;;;;;;5070636;28;20678;-78
2023/11/04 09:23:34;;;;;;;8.13;2.80;;;;;;;;;;5070522;28;20205;-78
2023/11/04 09:26:01;;;;;;;9.87;6.10;;;;;;;;;;5071102;28;20266;-79
2023/11/04 09:28:27;;;;;;;12.27;4.50;;;;;;;;;;5070245;28;20641;-79
2023/11/04 09:30:56;;;;;;;7.20;3.30;;;;;;;;;;5070936;28;20224;-79
2023/11/04 09:33:23;;;;;;;8.17;4.50;;;;;;;;;;5070476;28;20208;-79
2023/11/04 09:35:50;;;;;;;19.93;7.17;;;;;;;;;;5062494;28;20200;-79
2023/11/04 09:38:17;;;;;;;6.40;3.20;;;;;;;;;;5070214;28;20205;-78
2023/11/04 09:40:43;;;;;;;11.93;4.87;;;;;;;;;;5070270;28;20201;-78
2023/11/04 09:43:11;;;;;;;23.70;7.77;;;;;;;;;;5070058;28;20201;-78
2023/11/04 09:45:38;;;;;;;23.80;8.40;;;;;;;;;;5070554;28;20687;-77
2023/11/04 09:48:07;;;;;;;14.00;4.53;;;;;;;;;;5055722;28;20242;-79
2023/11/04 09:50:34;;;;;;;29.73;7.57;;;;;;;;;;5070132;28;20244;-79
2023/11/04 09:53:08;;;;;;;23.17;8.20;;;;;;;;;;5070627;28;20192;-79
2023/11/04 09:55:35;;;;;;;23.97;7.20;;;;;;;;;;5070374;28;20679;-78
2023/11/04 09:58:03;;;;;;;25.03;5.50;;;;;;;;;;5069758;28;20288;-79
2023/11/04 10:00:32;;;;;;;7.53;1.80;;;;;;;;;;5070528;28;20251;-78
2023/11/04 10:16:41;;;;;;;2.13;0.60;;;;;;;;;;5120094;27;20937;-77
2023/11/04 11:11:45;;;;;;;13.37;8.43;;;;;;;;;;5149624;27;20573;-82
2023/11/04 11:14:12;;;;;;;3.70;3.33;;;;;;;;;;5148952;27;20680;-81
2023/11/04 11:16:39;;;;;;;18.80;10.63;;;;;;;;;;5145101;27;20206;-81
2023/11/04 11:19:10;;;;;;;12.27;9.30;;;;;;;;;;5149615;27;20226;-79
2023/11/04 11:21:49;;;;;;;16.57;14.77;;;;;;;;;;5149375;27;20766;-80
2023/11/04 11:24:16;;;;;;;14.10;12.67;;;;;;;;;;5124784;27;20208;-81
2023/11/04 11:26:53;;;;;;;17.33;13.27;;;;;;;;;;5147452;27;20702;-80
2023/11/04 11:29:23;;;;;;;8.80;6.50;;;;;;;;;;5138982;27;20215;-80
2023/11/04 11:31:52;;;;;;;5.47;4.97;;;;;;;;;;5144777;27;20757;-80
2023/11/04 11:34:19;;;;;;;5.07;4.27;;;;;;;;;;5145018;27;20231;-80
2023/11/04 11:36:47;;;;;;;4.27;2.83;;;;;;;;;;5149159;27;20613;-80
2023/11/04 11:39:14;;;;;;;5.73;4.27;;;;;;;;;;5148283;27;20696;-80
2023/11/04 11:41:43;;;;;;;7.47;4.63;;;;;;;;;;5152196;27;20194;-80
2023/11/04 11:44:12;;;;;;;8.67;5.33;;;;;;;;;;5148716;27;20702;-80
2023/11/04 11:46:41;;;;;;;4.13;3.03;;;;;;;;;;5134909;27;20210;-81
2023/11/04 11:49:08;;;;;;;4.63;3.17;;;;;;;;;;5128836;27;20433;-81
2023/11/04 11:51:36;;;;;;;3.77;3.40;;;;;;;;;;5129354;27;20234;-82
2023/11/04 11:54:03;;;;;;;5.20;3.73;;;;;;;;;;5129940;27;20229;-80
2023/11/04 11:56:31;;;;;;;4.13;2.73;;;;;;;;;;5131015;27;20596;-80
2023/11/04 11:59:03;;;;;;;5.43;3.40;;;;;;;;;;5129346;27;20828;-80
2023/11/04 12:01:31;;;;;;;4.17;3.47;;;;;;;;;;5132080;27;20271;-81
2023/11/04 12:03:59;;;;;;;6.47;5.40;;;;;;;;;;5129973;27;20194;-80
2023/11/04 12:06:27;;;;;;;6.70;3.70;;;;;;;;;;5133153;27;20209;-80
2023/11/04 12:08:55;;;;;;;4.70;2.47;;;;;;;;;;5136642;27;20196;-81
2023/11/04 12:11:23;;;;;;;15.70;11.50;;;;;;;;;;5114977;27;20341;-81
2023/11/04 12:13:50;;;;;;;9.50;6.30;;;;;;;;;;5114971;27;20198;-81
2023/11/04 12:16:17;;;;;;;8.70;6.13;;;;;;;;;;5115070;27;20207;-80
2023/11/04 12:18:46;;;;;;;5.17;4.43;;;;;;;;;;5114833;27;20241;-81
2023/11/04 12:21:13;;;;;;;4.20;2.40;;;;;;;;;;5116451;27;20222;-80
2023/11/04 12:23:40;;;;;;;6.17;2.87;;;;;;;;;;5114983;27;20210;-81
2023/11/04 12:26:07;;;;;;;5.67;3.03;;;;;;;;;;5116597;27;20205;-81
2023/11/04 12:28:37;;;;;;;6.37;3.20;;;;;;;;;;5115393;27;20207;-80
2023/11/04 12:31:05;;;;;;;5.57;3.00;;;;;;;;;;5116851;27;20294;-81
2023/11/04 12:33:32;;;;;;;5.97;3.57;;;;;;;;;;5126089;27;20206;-81
2023/11/04 12:36:01;;;;;;;4.60;3.53;;;;;;;;;;5122753;27;20207;-81
2023/11/04 12:38:28;;;;;;;3.63;2.30;;;;;;;;;;5124017;27;20222;-80
2023/11/04 12:40:55;;;;;;;9.73;2.90;;;;;;;;;;5134260;27;20206;-78
2023/11/04 12:43:23;;;;;;;6.70;2.40;;;;;;;;;;5133252;27;20203;-78
2023/11/04 12:45:50;;;;;;;4.40;3.10;;;;;;;;;;5134072;27;20198;-78
2023/11/04 12:48:18;;;;;;;5.30;1.90;;;;;;;;;;5132920;27;20199;-78
2023/11/04 12:50:45;;;;;;;3.77;2.23;;;;;;;;;;5133821;27;20703;-79
2023/11/04 12:53:13;;;;;;;4.03;2.70;;;;;;;;;;5133009;27;20688;-81
2023/11/04 12:55:40;;;;;;;5.03;2.10;;;;;;;;;;5133615;27;20239;-81
2023/11/04 12:58:07;;;;;;;5.67;2.90;;;;;;;;;;5139162;27;20218;-81
2023/11/04 13:00:34;;;;;;;7.33;2.30;;;;;;;;;;5133618;27;20205;-81
2023/11/04 13:03:00;;;;;;;3.93;2.37;;;;;;;;;;5106497;27;20203;-81
2023/11/04 13:05:27;;;;;;;6.60;2.33;;;;;;;;;;5133139;27;20213;-82
2023/11/04 13:07:54;;;;;;;4.80;2.27;;;;;;;;;;5133285;27;20727;-80
2023/11/04 13:10:22;;;;;;;9.30;2.73;;;;;;;;;;5120455;27;20262;-82
2023/11/04 13:12:49;;;;;;;5.03;2.33;;;;;;;;;;5128830;27;20206;-81
2023/11/04 13:15:17;;;;;;;11.80;6.10;;;;;;;;;;5128928;27;20282;-85
2023/11/04 13:17:44;;;;;;;13.57;5.67;;;;;;;;;;5130650;27;20223;-79
2023/11/04 13:20:12;;;;;;;8.07;4.53;;;;;;;;;;5130331;27;20207;-83
2023/11/04 13:22:38;;;;;;;5.73;2.90;;;;;;;;;;5105738;27;20207;-83
2023/11/04 13:25:07;;;;;;;9.00;3.47;;;;;;;;;;5118548;27;20220;-83
2023/11/04 13:27:35;;;;;;;6.63;2.80;;;;;;;;;;5111473;27;20201;-81
2023/11/04 13:30:02;;;;;;;6.23;4.10;;;;;;;;;;5110660;27;20209;-81
2023/11/04 13:32:29;;;;;;;6.10;3.33;;;;;;;;;;5123957;27;20209;-82
2023/11/04 13:34:56;;;;;;;7.93;2.43;;;;;;;;;;5126509;27;20681;-81
2023/11/04 13:37:23;;;;;;;6.23;3.70;;;;;;;;;;5130532;27;20602;-82
2023/11/04 13:39:50;;;;;;;8.63;3.00;;;;;;;;;;5126792;27;20240;-84
2023/11/04 13:42:17;;;;;;;7.00;2.37;;;;;;;;;;5114315;27;20224;-85
2023/11/04 13:44:45;;;;;;;19.87;9.00;;;;;;;;;;5114237;27;20206;-84
2023/11/04 13:47:14;;;;;;;20.47;12.17;;;;;;;;;;5124728;27;20209;-78
2023/11/04 13:49:40;;;;;;;37.47;19.93;;;;;;;;;;5106056;27;20282;-80
2023/11/04 13:52:08;;;;;;;17.47;9.87;;;;;;;;;;5108415;28;20207;-80
2023/11/04 13:54:34;;;;;;;18.23;9.07;;;;;;;;;;5118608;27;20294;-79
2023/11/04 13:57:02;;;;;;;6.27;2.93;;;;;;;;;;5111730;27;20201;-81
2023/11/04 13:59:29;;;;;;;8.20;2.20;;;;;;;;;;5112884;27;20225;-80
2023/11/04 14:01:57;;;;;;;178.67;121.37;;;;;;;;;;5125581;27;20205;-80
2023/11/04 14:04:24;;;;;;;15.40;9.77;;;;;;;;;;5131147;27;20626;-79
2023/11/04 14:06:51;;;;;;;3.67;2.30;;;;;;;;;;5128727;27;20219;-79
2023/11/04 14:09:18;;;;;;;3.30;2.37;;;;;;;;;;5110610;28;20210;-79
2023/11/04 14:11:44;;;;;;;7.50;2.53;;;;;;;;;;5123645;27;20232;-79
2023/11/04 14:14:12;;;;;;;5.80;2.67;;;;;;;;;;5127168;27;20213;-80
2023/11/04 14:16:40;;;;;;;2.90;1.57;;;;;;;;;;5114123;27;20671;-82
2023/11/04 14:19:10;;;;;;;7.77;2.47;;;;;;;;;;5112757;27;20229;-82
2023/11/04 14:21:37;;;;;;;4.33;2.27;;;;;;;;;;5132853;27;20206;-80
2023/11/04 14:24:04;;;;;;;7.60;1.87;;;;;;;;;;5113644;27;20205;-81
2023/11/04 14:26:31;;;;;;;2.50;2.10;;;;;;;;;;5128950;27;20217;-80
2023/11/04 14:28:58;;;;;;;5.90;1.90;;;;;;;;;;5107694;27;20614;-80
2023/11/04 14:31:24;;;;;;;3.30;1.70;;;;;;;;;;5130185;27;20645;-82
2023/11/04 14:33:52;;;;;;;4.53;2.17;;;;;;;;;;5120093;27;20691;-83
2023/11/04 14:36:20;;;;;;;5.80;1.73;;;;;;;;;;5132344;27;20203;-82
2023/11/04 14:38:47;;;;;;;3.80;1.77;;;;;;;;;;5113900;27;20296;-83
2023/11/04 14:41:16;;;;;;;3.67;1.90;;;;;;;;;;5122327;27;20219;-84
2023/11/04 14:43:43;;;;;;;7.30;2.20;;;;;;;;;;5119077;27;20210;-84
2023/11/04 14:46:14;;;;;;;3.53;1.87;;;;;;;;;;5120036;27;20210;-85
2023/11/04 14:48:41;;;;;;;2.23;1.33;;;;;;;;;;5120941;27;20611;-86
2023/11/04 14:51:07;;;;;;;4.50;1.40;;;;;;;;;;5112364;28;20212;-85
2023/11/04 14:53:36;;;;;;;3.07;1.63;;;;;;;;;;5124637;27;20688;-85
2023/11/04 14:56:03;;;;;;;7.03;1.77;;;;;;;;;;5123774;28;20208;-84
2023/11/04 14:58:30;;;;;;;3.27;1.80;;;;;;;;;;5112918;28;20234;-86
2023/11/04 15:00:59;;;;;;;6.03;2.67;;;;;;;;;;5110916;28;20199;-88
2023/11/04 15:03:26;;;;;;;5.33;2.00;;;;;;;;;;5109954;28;20207;-85
2023/11/04 15:05:52;;;;;;;5.03;3.10;;;;;;;;;;5114717;28;20624;-86
2023/11/04 15:08:19;;;;;;;3.83;2.10;;;;;;;;;;5126281;28;20272;-85
2023/11/04 15:10:48;;;;;;;6.73;2.13;;;;;;;;;;5113140;28;20248;-84
2023/11/04 15:13:15;;;;;;;2.67;1.80;;;;;;;;;;5110592;28;20572;-84
2023/11/04 15:15:43;;;;;;;3.73;1.60;;;;;;;;;;5116706;28;20291;-86
2023/11/04 15:18:11;;;;;;;1.60;1.50;;;;;;;;;;5122033;28;20760;-80
2023/11/04 15:20:37;;;;;;;2.70;1.33;;;;;;;;;;5110589;28;20204;-79
2023/11/04 15:23:05;;;;;;;4.07;1.60;;;;;;;;;;5111460;28;20206;-79
2023/11/04 15:25:32;;;;;;;2.73;1.33;;;;;;;;;;5113519;28;20216;-80
2023/11/04 15:28:00;;;;;;;1.87;1.47;;;;;;;;;;5112641;28;20199;-80
2023/11/04 15:30:27;;;;;;;3.63;3.27;;;;;;;;;;5115668;27;20638;-81
2023/11/04 15:32:54;;;;;;;6.37;3.30;;;;;;;;;;5122828;28;20716;-81
2023/11/04 15:35:20;;;;;;;3.93;2.30;;;;;;;;;;5122659;28;20202;-81
2023/11/04 15:37:47;;;;;;;5.30;2.63;;;;;;;;;;5117521;28;20206;-81
2023/11/04 15:40:14;;;;;;;3.73;1.80;;;;;;;;;;5116686;28;20231;-82
2023/11/04 15:42:42;;;;;;;2.43;1.27;;;;;;;;;;5113387;28;20218;-87
2023/11/04 15:45:10;;;;;;;2.67;1.63;;;;;;;;;;5106688;28;20577;-81